createdAt,value
2019-05-09T00:02:44.207Z,10.60
2019-05-09T00:05:14.360Z,10.60
2019-05-09T00:07:44.012Z,10.60
2019-05-09T00:10:14.323Z,10.50
2019-05-09T00:12:43.845Z,10.50
2019-05-09T00:15:13.935Z,10.50
2019-05-09T00:17:43.969Z,10.50
2019-05-09T00:20:24.499Z,10.50
2019-05-09T00:22:54.018Z,10.50
2019-05-09T00:25:23.670Z,10.40
2019-05-09T00:27:53.678Z,10.40
2019-05-09T00:30:43.652Z,10.40
2019-05-09T00:33:14.454Z,10.40
2019-05-09T00:35:44.243Z,10.40
2019-05-09T00:38:13.823Z,10.40
2019-05-09T00:40:55.297Z,10.40
2019-05-09T00:43:14.191Z,10.40
2019-05-09T00:46:05.262Z,10.30
2019-05-09T00:48:40.823Z,10.30
2019-05-09T00:51:10.195Z,10.30
2019-05-09T00:53:39.579Z,10.30
2019-05-09T00:56:08.938Z,10.30
2019-05-09T00:58:38.278Z,10.30
2019-05-09T01:01:07.639Z,10.20
2019-05-09T01:03:37.097Z,10.20
2019-05-09T01:06:06.483Z,10.20
2019-05-09T01:08:35.906Z,10.20
2019-05-09T01:11:12.005Z,10.20
2019-05-09T01:13:36.315Z,10.20
2019-05-09T01:16:05.727Z,10.20
2019-05-09T01:18:35.889Z,10.20
2019-05-09T01:21:05.269Z,10.20
2019-05-09T01:23:34.668Z,10.20
2019-05-09T01:26:04.372Z,10.20
2019-05-09T01:28:34.073Z,10.20
2019-05-09T01:31:04.267Z,10.20
2019-05-09T01:33:48.847Z,10.10
2019-05-09T01:36:18.250Z,10.20
2019-05-09T01:38:47.580Z,10.20
2019-05-09T01:41:28.082Z,10.20
2019-05-09T01:43:48.542Z,10.10
2019-05-09T01:46:17.942Z,10.10
2019-05-09T01:48:48.780Z,10.10
2019-05-09T01:51:18.251Z,10.10
2019-05-09T01:53:53.143Z,10.10
2019-05-09T01:56:23.561Z,10.10
2019-05-09T01:58:53.946Z,10.10
2019-05-09T02:01:24.219Z,10.10
2019-05-09T02:03:53.896Z,10.10
2019-05-09T02:06:24.333Z,10.10
2019-05-09T02:08:54.701Z,10.10
2019-05-09T02:11:38.226Z,10.10
2019-05-09T02:13:55.142Z,10.10
2019-05-09T02:16:55.745Z,10.00
2019-05-09T02:19:33.985Z,10.00
2019-05-09T02:22:05.502Z,10.00
2019-05-09T02:24:34.923Z,9.90
2019-05-09T02:27:04.261Z,9.90
2019-05-09T02:29:33.853Z,9.90
2019-05-09T02:32:04.492Z,9.90
2019-05-09T02:34:35.620Z,9.80
2019-05-09T02:37:05.259Z,9.80
2019-05-09T02:39:34.590Z,9.70
2019-05-09T02:42:09.641Z,9.70
2019-05-09T02:44:35.014Z,9.70
2019-05-09T02:57:40.644Z,9.70
2019-05-09T03:00:28.803Z,9.60
2019-05-09T03:03:02.757Z,9.60
2019-05-09T03:05:32.158Z,9.50
2019-05-09T03:08:01.491Z,9.50
2019-05-09T03:10:30.735Z,9.50
2019-05-09T03:13:00.077Z,9.50
2019-05-09T03:15:29.630Z,9.50
2019-05-09T03:17:59.823Z,9.40
2019-05-09T03:21:03.863Z,9.40
2019-05-09T03:23:33.210Z,9.40
2019-05-09T03:26:02.579Z,9.40
2019-05-09T03:28:52.119Z,9.40
2019-05-09T03:31:23.113Z,9.40
2019-05-09T03:33:52.398Z,9.40
2019-05-09T03:36:21.807Z,9.40
2019-05-09T03:38:51.103Z,9.40
2019-05-09T03:41:20.478Z,9.40
2019-05-09T03:43:49.855Z,9.40
2019-05-09T03:46:42.657Z,9.40
2019-05-09T03:49:12.148Z,9.30
2019-05-09T03:51:41.510Z,9.30
2019-05-09T03:54:10.908Z,9.40
2019-05-09T03:56:44.393Z,9.30
2019-05-09T03:59:13.731Z,9.30
2019-05-09T04:01:46.597Z,9.40
2019-05-09T04:04:14.147Z,9.30
2019-05-09T04:06:43.591Z,9.30
2019-05-09T04:09:13.000Z,9.30
2019-05-09T04:11:42.547Z,9.30
2019-05-09T04:14:17.546Z,9.40
2019-05-09T04:16:48.225Z,9.40
2019-05-09T04:19:23.367Z,9.40
2019-05-09T04:21:57.554Z,9.30
2019-05-09T04:24:31.657Z,9.30
2019-05-09T04:27:14.787Z,9.30
2019-05-09T04:29:48.391Z,9.40
2019-05-09T04:32:18.397Z,9.40
2019-05-09T04:34:47.774Z,9.40
2019-05-09T04:37:18.022Z,9.40
2019-05-09T04:39:54.052Z,9.40
2019-05-09T04:42:20.569Z,9.40
2019-05-09T04:45:02.784Z,9.50
2019-05-09T04:47:27.814Z,9.50
2019-05-09T04:49:58.356Z,9.50
2019-05-09T04:52:29.490Z,9.50
2019-05-09T04:54:58.944Z,9.50
2019-05-09T04:57:28.281Z,9.50
2019-05-09T04:59:57.633Z,9.50
2019-05-09T05:02:33.666Z,9.60
2019-05-09T05:05:03.073Z,9.60
2019-05-09T05:07:32.349Z,9.70
2019-05-09T05:10:01.723Z,9.80
2019-05-09T05:12:31.162Z,9.80
2019-05-09T05:15:00.738Z,9.80
2019-05-09T05:17:30.689Z,9.90
2019-05-09T05:20:05.466Z,10.00
2019-05-09T05:22:43.499Z,10.20
2019-05-09T05:25:12.854Z,10.20
2019-05-09T05:27:42.118Z,10.30
2019-05-09T05:30:11.716Z,10.30
2019-05-09T05:32:48.796Z,10.20
2019-05-09T05:35:49.648Z,10.30
2019-05-09T05:38:19.053Z,10.30
2019-05-09T05:40:49.897Z,10.40
2019-05-09T05:43:19.470Z,10.40
2019-05-09T05:46:01.797Z,10.50
2019-05-09T05:48:32.381Z,10.50
2019-05-09T05:51:01.791Z,10.40
2019-05-09T05:53:31.237Z,10.50
2019-05-09T05:56:00.624Z,10.50
2019-05-09T05:58:30.061Z,10.60
2019-05-09T06:00:59.412Z,10.60
2019-05-09T06:03:28.922Z,10.70
2019-05-09T06:05:58.618Z,11.10
2019-05-09T06:08:28.158Z,11.30
2019-05-09T06:10:57.756Z,11.40
2019-05-09T06:13:27.605Z,11.30
2019-05-09T06:15:58.623Z,11.50
2019-05-09T06:18:28.190Z,11.60
2019-05-09T06:20:58.325Z,11.60
2019-05-09T06:23:28.340Z,11.60
2019-05-09T06:25:58.830Z,12.10
2019-05-09T06:28:28.605Z,12.70
2019-05-09T06:30:58.503Z,13.10
2019-05-09T06:33:28.703Z,13.60
2019-05-09T06:35:58.915Z,14.00
2019-05-09T06:38:28.536Z,14.00
2019-05-09T06:40:58.272Z,14.30
2019-05-09T06:43:30.093Z,14.20
2019-05-09T06:46:21.428Z,14.10
2019-05-09T06:48:50.811Z,13.90
2019-05-09T06:51:21.338Z,14.10
2019-05-09T06:53:50.861Z,14.00
2019-05-09T06:56:20.420Z,14.20
2019-05-09T06:58:49.835Z,14.10
2019-05-09T07:01:40.059Z,14.10
2019-05-09T07:04:18.418Z,14.30
2019-05-09T07:06:54.702Z,14.50
2019-05-09T07:09:33.637Z,14.80
2019-05-09T07:12:03.091Z,15.00
2019-05-09T07:14:37.986Z,14.70
2019-05-09T07:17:04.923Z,14.50
2019-05-09T07:19:34.287Z,14.60
2019-05-09T07:22:09.085Z,14.60
2019-05-09T07:25:15.996Z,14.40
2019-05-09T07:27:48.309Z,14.30
2019-05-09T07:30:37.551Z,14.60
2019-05-09T07:33:19.587Z,14.80
2019-05-09T07:35:49.198Z,15.10
2019-05-09T07:38:28.634Z,15.00
2019-05-09T07:40:58.624Z,15.10
2019-05-09T07:43:28.253Z,15.10
2019-05-09T07:46:20.259Z,15.10
2019-05-09T07:48:49.691Z,14.90
2019-05-09T07:51:19.060Z,15.00
2019-05-09T07:53:48.407Z,15.20
2019-05-09T07:56:18.645Z,15.50
2019-05-09T07:58:48.428Z,15.70
2019-05-09T08:01:19.111Z,15.90
2019-05-09T08:03:49.136Z,16.20
2019-05-09T08:06:18.586Z,15.90
2019-05-09T08:08:47.887Z,16.30
2019-05-09T08:11:17.973Z,16.30
2019-05-09T08:13:48.674Z,16.20
2019-05-09T08:16:18.766Z,16.50
2019-05-09T08:18:48.446Z,16.60
2019-05-09T08:21:18.243Z,16.40
2019-05-09T08:23:48.540Z,16.50
2019-05-09T08:26:20.853Z,16.70
2019-05-09T08:28:50.197Z,17.20
2019-05-09T08:31:20.398Z,17.40
2019-05-09T08:33:49.766Z,17.80
2019-05-09T08:36:20.282Z,17.50
2019-05-09T08:38:49.736Z,17.10
2019-05-09T08:41:19.045Z,17.60
2019-05-09T08:43:48.512Z,17.90
2019-05-09T08:46:18.355Z,17.90
2019-05-09T08:48:48.546Z,18.10
2019-05-09T08:51:35.367Z,18.60
2019-05-09T08:53:58.221Z,19.10
2019-05-09T08:56:28.369Z,19.10
2019-05-09T08:59:01.796Z,19.00
2019-05-09T09:01:47.590Z,19.50
2019-05-09T09:03:59.852Z,19.60
2019-05-09T09:06:29.217Z,19.80
2019-05-09T09:08:58.563Z,19.00
2019-05-09T09:11:28.116Z,18.40
2019-05-09T09:13:57.814Z,18.10
2019-05-09T09:16:28.350Z,18.10
2019-05-09T09:18:58.574Z,18.10
2019-05-09T09:21:28.607Z,18.40
2019-05-09T09:23:58.374Z,18.70
2019-05-09T09:26:27.943Z,19.00
2019-05-09T09:28:57.905Z,19.60
2019-05-09T09:31:28.514Z,19.10
2019-05-09T09:33:58.505Z,19.20
2019-05-09T09:36:28.229Z,19.20
2019-05-09T09:38:58.620Z,19.10
2019-05-09T09:41:28.840Z,19.30
2019-05-09T09:43:58.565Z,19.60
2019-05-09T09:46:28.709Z,19.60
2019-05-09T09:48:58.707Z,20.10
2019-05-09T09:51:28.236Z,20.20
2019-05-09T09:53:58.230Z,20.60
2019-05-09T09:56:28.361Z,20.80
2019-05-09T09:59:18.987Z,20.60
2019-05-09T10:01:48.480Z,20.50
2019-05-09T10:04:24.036Z,20.20
2019-05-09T10:06:52.860Z,19.90
2019-05-09T10:09:20.360Z,20.10
2019-05-09T10:11:49.617Z,20.00
2019-05-09T10:14:28.343Z,19.80
2019-05-09T10:17:25.098Z,19.60
2019-05-09T10:19:58.115Z,20.00
2019-05-09T10:22:27.621Z,20.50
2019-05-09T10:24:58.576Z,20.90
2019-05-09T10:27:28.445Z,20.70
2019-05-09T10:29:57.927Z,20.80
2019-05-09T10:32:28.895Z,21.10
2019-05-09T10:34:58.482Z,21.00
2019-05-09T10:37:27.852Z,21.10
2019-05-09T10:40:00.244Z,21.00
2019-05-09T10:42:48.355Z,21.00
2019-05-09T10:45:31.767Z,21.10
2019-05-09T10:48:01.251Z,21.10
2019-05-09T10:50:33.884Z,21.60
2019-05-09T10:53:01.651Z,21.00
2019-05-09T10:55:31.039Z,21.10
2019-05-09T10:58:02.260Z,21.50
2019-05-09T11:00:31.515Z,21.20
2019-05-09T11:03:00.872Z,20.60
2019-05-09T11:05:30.301Z,20.30
2019-05-09T11:07:59.607Z,20.50
2019-05-09T11:10:32.492Z,20.60
2019-05-09T11:12:59.993Z,20.70
2019-05-09T11:15:29.464Z,20.30
2019-05-09T11:17:58.912Z,20.90
2019-05-09T11:20:30.356Z,21.00
2019-05-09T11:22:59.950Z,20.40
2019-05-09T11:25:29.344Z,20.20
2019-05-09T11:28:08.168Z,20.10
2019-05-09T11:30:29.992Z,20.00
2019-05-09T11:32:59.872Z,19.90
2019-05-09T11:35:29.453Z,19.40
2019-05-09T11:37:58.881Z,19.50
2019-05-09T11:40:28.299Z,19.90
2019-05-09T11:42:57.668Z,19.60
2019-05-09T11:45:28.069Z,19.80
2019-05-09T11:47:58.212Z,20.00
2019-05-09T11:50:27.870Z,20.60
2019-05-09T11:52:59.976Z,20.80
2019-05-09T11:55:35.470Z,20.70
2019-05-09T11:57:59.346Z,20.00
2019-05-09T12:00:29.378Z,19.80
2019-05-09T12:02:59.105Z,19.80
2019-05-09T12:05:28.914Z,19.80
2019-05-09T12:07:58.462Z,19.60
2019-05-09T12:10:28.515Z,19.70
2019-05-09T12:12:58.155Z,19.70
2019-05-09T12:15:29.086Z,19.60
2019-05-09T12:18:05.354Z,19.50
2019-05-09T12:20:29.870Z,19.40
2019-05-09T12:22:59.263Z,19.40
2019-05-09T12:25:28.627Z,19.30
2019-05-09T12:27:58.504Z,19.30
2019-05-09T12:30:28.591Z,18.80
2019-05-09T12:32:58.875Z,18.60
2019-05-09T12:35:28.723Z,18.40
2019-05-09T12:37:58.163Z,18.10
2019-05-09T12:40:27.583Z,17.60
2019-05-09T12:42:56.981Z,17.60
2019-05-09T12:45:26.423Z,17.60
2019-05-09T12:48:09.984Z,17.50
2019-05-09T12:50:29.292Z,17.10
2019-05-09T12:52:58.199Z,17.20
2019-05-09T12:55:27.710Z,17.50
2019-05-09T12:57:59.377Z,17.60
2019-05-09T13:00:28.493Z,17.70
2019-05-09T13:02:59.424Z,17.70
2019-05-09T13:05:28.891Z,17.60
2019-05-09T13:07:58.135Z,17.50
2019-05-09T13:10:28.357Z,17.70
2019-05-09T13:12:57.772Z,17.80
2019-05-09T13:15:35.059Z,18.10
2019-05-09T13:18:04.426Z,18.10
2019-05-09T13:20:33.718Z,18.00
2019-05-09T13:23:03.155Z,17.80
2019-05-09T13:25:32.517Z,17.90
2019-05-09T13:28:01.905Z,17.90
2019-05-09T13:30:31.351Z,17.90
2019-05-09T13:33:00.761Z,18.00
2019-05-09T13:35:30.465Z,18.00
2019-05-09T13:38:00.004Z,18.10
2019-05-09T13:40:29.496Z,18.20
2019-05-09T13:42:58.869Z,18.20
2019-05-09T13:45:28.691Z,18.20
2019-05-09T13:47:58.267Z,18.20
2019-05-09T13:50:28.282Z,18.20
2019-05-09T13:52:58.268Z,18.40
2019-05-09T13:55:27.738Z,18.40
2019-05-09T13:57:59.283Z,18.50
2019-05-09T14:00:28.639Z,18.60
2019-05-09T14:02:58.252Z,19.30
2019-05-09T14:05:29.157Z,20.00
2019-05-09T14:08:03.166Z,20.40
2019-05-09T14:10:29.933Z,20.30
2019-05-09T14:13:09.012Z,20.00
2019-05-09T14:15:30.554Z,19.40
2019-05-09T14:17:59.991Z,19.20
2019-05-09T14:20:29.343Z,19.30
2019-05-09T14:22:58.619Z,19.10
2019-05-09T14:25:29.092Z,19.30
2019-05-09T14:27:58.792Z,19.50
2019-05-09T14:30:28.657Z,19.40
2019-05-09T14:33:00.273Z,19.30
2019-05-09T14:35:29.004Z,19.40
2019-05-09T14:37:59.123Z,19.70
2019-05-09T14:40:28.522Z,19.60
2019-05-09T14:42:57.983Z,19.60
2019-05-09T14:45:27.987Z,19.60
2019-05-09T14:47:58.764Z,20.10
2019-05-09T14:50:28.545Z,20.80
2019-05-09T14:52:58.431Z,20.90
2019-05-09T14:55:28.621Z,21.20
2019-05-09T14:57:58.099Z,21.10
2019-05-09T15:00:28.766Z,20.70
2019-05-09T15:02:58.270Z,21.00
2019-05-09T15:05:28.598Z,20.80
2019-05-09T15:07:59.344Z,20.90
2019-05-09T15:10:29.005Z,21.00
2019-05-09T15:12:58.831Z,21.20
2019-05-09T15:15:32.306Z,21.00
2019-05-09T15:17:59.442Z,20.60
2019-05-09T15:20:28.761Z,20.30
2019-05-09T15:22:58.788Z,20.60
2019-05-09T15:25:28.341Z,20.70
2019-05-09T15:27:58.079Z,20.60
2019-05-09T15:30:28.698Z,20.50
2019-05-09T15:32:58.635Z,20.20
2019-05-09T15:35:28.168Z,20.10
2019-05-09T15:37:59.060Z,19.90
2019-05-09T15:40:28.594Z,19.70
2019-05-09T15:42:58.824Z,19.30
2019-05-09T15:45:29.922Z,19.30
2019-05-09T15:47:59.340Z,19.40
2019-05-09T15:50:28.790Z,19.50
2019-05-09T15:52:58.398Z,19.10
2019-05-09T15:55:28.365Z,18.90
2019-05-09T15:58:00.206Z,18.70
2019-05-09T16:00:29.601Z,18.70
2019-05-09T16:02:59.272Z,18.40
2019-05-09T16:05:28.675Z,18.30
2019-05-09T16:07:58.642Z,18.10
2019-05-09T16:10:28.398Z,18.00
2019-05-09T16:12:57.861Z,17.90
2019-05-09T16:15:28.426Z,17.60
2019-05-09T16:17:58.171Z,17.50
2019-05-09T16:20:36.960Z,17.30
2019-05-09T16:22:58.519Z,17.20
2019-05-09T16:25:28.415Z,17.10
2019-05-09T16:27:58.694Z,17.00
2019-05-09T16:30:28.203Z,17.00
2019-05-09T16:32:58.574Z,17.00
2019-05-09T16:35:28.614Z,16.90
2019-05-09T16:38:06.064Z,16.90
2019-05-09T16:40:28.899Z,16.90
2019-05-09T16:42:58.221Z,16.80
2019-05-09T16:45:28.767Z,16.60
2019-05-09T16:47:58.231Z,16.70
2019-05-09T16:50:27.579Z,16.70
2019-05-09T16:52:58.423Z,16.80
2019-05-09T16:55:34.632Z,16.70
2019-05-09T16:58:03.989Z,16.50
2019-05-09T17:00:40.657Z,16.50
2019-05-09T17:03:10.055Z,16.40
2019-05-09T17:05:39.421Z,16.40
2019-05-09T17:08:08.934Z,16.30
2019-05-09T17:10:38.342Z,16.30
2019-05-09T17:13:07.948Z,16.20
2019-05-09T17:15:38.931Z,16.20
2019-05-09T17:18:10.068Z,16.20
2019-05-09T17:20:49.303Z,16.30
2019-05-09T17:23:23.289Z,16.30
2019-05-09T17:25:52.624Z,16.30
2019-05-09T17:28:22.092Z,16.10
2019-05-09T17:30:51.455Z,16.10
2019-05-09T17:33:20.720Z,16.10
2019-05-09T17:35:50.132Z,16.00
2019-05-09T17:38:19.496Z,15.90
2019-05-09T17:40:48.870Z,15.80
2019-05-09T17:43:18.455Z,15.80
2019-05-09T17:45:48.084Z,15.70
2019-05-09T17:48:18.357Z,15.60
2019-05-09T17:50:48.056Z,15.50
2019-05-09T17:53:18.219Z,15.40
2019-05-09T17:55:47.957Z,15.30
2019-05-09T17:58:29.062Z,15.30
2019-05-09T18:00:50.371Z,15.20
2019-05-09T18:03:23.191Z,15.10
2019-05-09T18:05:53.997Z,15.00
2019-05-09T18:08:23.361Z,14.90
2019-05-09T18:10:52.859Z,14.80
2019-05-09T18:13:23.763Z,14.80
2019-05-09T18:15:53.431Z,14.80
2019-05-09T18:18:22.822Z,14.80
2019-05-09T18:20:54.945Z,14.70
2019-05-09T18:23:24.441Z,14.60
2019-05-09T18:25:53.823Z,14.60
2019-05-09T18:28:23.138Z,14.50
2019-05-09T18:30:52.634Z,14.40
2019-05-09T18:33:30.609Z,14.40
2019-05-09T18:35:59.855Z,14.30
2019-05-09T18:38:32.269Z,14.20
2019-05-09T18:41:01.816Z,14.20
2019-05-09T18:43:31.354Z,14.10
2019-05-09T18:46:00.767Z,14.00
2019-05-09T18:48:30.112Z,13.90
2019-05-09T18:50:59.621Z,13.80
2019-05-09T18:53:29.590Z,13.80
2019-05-09T18:55:59.035Z,13.70
2019-05-09T18:58:28.567Z,13.60
2019-05-09T19:00:58.061Z,13.50
2019-05-09T19:03:27.677Z,13.40
2019-05-09T19:05:57.059Z,13.40
2019-05-09T19:08:26.430Z,13.30
2019-05-09T19:10:55.837Z,13.20
2019-05-09T19:13:25.119Z,13.20
2019-05-09T19:16:16.552Z,13.10
2019-05-09T19:18:51.886Z,13.10
2019-05-09T19:21:24.912Z,13.00
2019-05-09T19:23:54.245Z,13.00
2019-05-09T19:26:35.990Z,12.90
2019-05-09T19:29:06.499Z,12.90
2019-05-09T19:31:35.898Z,12.90
2019-05-09T19:34:05.571Z,12.80
2019-05-09T19:36:35.187Z,12.80
2019-05-09T19:39:06.867Z,12.80
2019-05-09T19:41:36.682Z,12.80
2019-05-09T19:44:06.119Z,12.80
2019-05-09T19:46:54.647Z,12.80
2019-05-09T19:49:24.010Z,12.80
2019-05-09T19:51:53.710Z,12.70
2019-05-09T19:54:23.196Z,12.70
2019-05-09T19:56:52.687Z,12.60
2019-05-09T19:59:22.103Z,12.60
2019-05-09T20:01:51.631Z,12.60
2019-05-09T20:04:21.003Z,12.50
2019-05-09T20:06:50.368Z,12.50
2019-05-09T20:09:25.854Z,12.50
2019-05-09T20:12:11.841Z,12.40
2019-05-09T20:14:44.263Z,12.40
2019-05-09T20:17:13.771Z,12.30
2019-05-09T20:19:43.146Z,12.30
2019-05-09T20:22:12.612Z,12.20
2019-05-09T20:24:42.002Z,12.20
2019-05-09T20:27:11.414Z,12.10
2019-05-09T20:29:40.894Z,12.10
2019-05-09T20:32:10.627Z,12.10
2019-05-09T20:34:40.178Z,12.10
2019-05-09T20:37:09.772Z,12.00
2019-05-09T20:39:39.305Z,12.00
2019-05-09T20:42:08.915Z,12.00
2019-05-09T20:44:38.580Z,12.00
2019-05-09T20:47:15.744Z,11.90
2019-05-09T20:49:45.620Z,11.90
2019-05-09T20:52:15.255Z,11.80
2019-05-09T20:54:44.869Z,11.70
2019-05-09T20:57:14.447Z,11.70
2019-05-09T20:59:44.080Z,11.60
2019-05-09T21:02:13.718Z,11.60
2019-05-09T21:04:43.309Z,11.50
2019-05-09T21:07:13.066Z,11.50
2019-05-09T21:09:42.690Z,11.40
2019-05-09T21:12:12.197Z,11.40
2019-05-09T21:14:42.077Z,11.40
2019-05-09T21:17:11.669Z,11.30
2019-05-09T21:19:41.282Z,11.30
2019-05-09T21:22:10.930Z,11.30
2019-05-09T21:24:40.496Z,11.30
2019-05-09T21:27:10.083Z,11.40
2019-05-09T21:29:39.585Z,11.40
2019-05-09T21:32:09.347Z,11.40
2019-05-09T21:34:38.782Z,11.50
2019-05-09T21:37:08.312Z,11.60
2019-05-09T21:39:37.881Z,11.60
2019-05-09T21:42:07.410Z,11.60
2019-05-09T21:44:36.649Z,11.60
2019-05-09T21:47:05.934Z,11.70
2019-05-09T21:49:35.285Z,11.70
2019-05-09T21:52:04.539Z,11.70
2019-05-09T21:54:33.882Z,11.80
2019-05-09T21:57:03.375Z,11.80
2019-05-09T21:59:32.659Z,11.80
2019-05-09T22:02:01.944Z,11.90
2019-05-09T22:04:31.310Z,11.90
2019-05-09T22:07:00.706Z,11.90
2019-05-09T22:09:30.073Z,11.90
2019-05-09T22:11:59.540Z,11.90
2019-05-09T22:14:28.879Z,11.90
2019-05-09T22:17:00.317Z,11.90
2019-05-09T22:19:29.733Z,11.90
2019-05-09T22:21:59.067Z,11.90
2019-05-09T22:24:28.312Z,11.90
2019-05-09T22:26:57.658Z,11.80
2019-05-09T22:29:27.189Z,11.80
2019-05-09T22:31:56.596Z,11.70
2019-05-09T22:34:25.952Z,11.70
2019-05-09T22:36:55.236Z,11.60
2019-05-09T22:39:24.560Z,11.60
2019-05-09T22:41:54.049Z,11.50
2019-05-09T22:44:23.325Z,11.50
2019-05-09T22:46:52.601Z,11.40
2019-05-09T22:49:22.024Z,11.40
2019-05-09T22:51:51.527Z,11.40
2019-05-09T22:54:21.166Z,11.40
2019-05-09T22:56:50.657Z,11.40
2019-05-09T22:59:20.119Z,11.40
2019-05-09T23:01:49.507Z,11.40
2019-05-09T23:04:18.882Z,11.50
2019-05-09T23:06:48.329Z,11.50
2019-05-09T23:09:17.691Z,11.50
2019-05-09T23:11:47.079Z,11.50
2019-05-09T23:14:16.389Z,11.50
2019-05-09T23:16:45.747Z,11.50
2019-05-09T23:19:15.146Z,11.50
2019-05-09T23:21:44.496Z,11.50
2019-05-09T23:24:28.066Z,11.50
2019-05-09T23:26:47.292Z,11.40
2019-05-09T23:29:16.645Z,11.40
2019-05-09T23:32:04.993Z,11.40
2019-05-09T23:34:34.426Z,11.40
2019-05-09T23:37:03.796Z,11.30
2019-05-09T23:39:38.055Z,11.30
2019-05-09T23:42:10.178Z,11.30
2019-05-09T23:44:39.603Z,11.30
2019-05-09T23:47:08.991Z,11.30
2019-05-09T23:49:38.462Z,11.30
2019-05-09T23:52:07.838Z,11.30
2019-05-09T23:54:54.860Z,11.20
2019-05-09T23:57:42.726Z,11.20
